Time;durP1;ratioP1;P1;durP2;ratioP2;P2;SDS_P1;SDS_P2;PMS_P1;PMS_P2;Temp;Humidity;BMP_temperature;BMP_pressure;BME280_temperature;BME280_humidity;BME280_pressure;Samples;Min_cycle;Max_cycle;Signal;HPM_P1;HPM_P2
2023/05/18 00:02:04;;;;;;;4.93;1.90;;;;;;;7.66;67.54;102709.06;5074237;28;20142;-86
2023/05/18 00:04:32;;;;;;;2.95;1.70;;;;;;;7.61;68.62;102702.91;5072895;28;20480;-86
2023/05/18 00:07:02;;;;;;;3.95;1.70;;;;;;;7.53;70.18;102708.78;5059151;28;20481;-86
2023/05/18 00:09:28;;;;;;;3.08;1.70;;;;;;;7.47;68.15;102695.66;5055285;28;20021;-86
2023/05/18 00:11:53;;;;;;;2.47;1.50;;;;;;;7.47;68.08;102711.16;5055438;28;20025;-86
2023/05/18 00:14:19;;;;;;;4.87;2.57;;;;;;;7.41;70.78;102711.00;5054153;28;20374;-86
2023/05/18 00:16:44;;;;;;;2.77;2.00;;;;;;;7.38;68.12;102710.91;5055272;28;20507;-86
2023/05/18 00:19:13;;;;;;;2.27;1.80;;;;;;;7.38;67.93;102703.16;5054898;28;20021;-85
2023/05/18 00:21:40;;;;;;;2.10;1.70;;;;;;;7.38;68.36;102709.19;5054570;28;20158;-86
2023/05/18 00:24:06;;;;;;;1.88;1.77;;;;;;;7.35;69.28;102710.81;5055101;28;20021;-86
2023/05/18 00:26:32;;;;;;;3.97;2.00;;;;;;;7.25;69.25;102707.97;5055186;28;20035;-86
2023/05/18 00:28:57;;;;;;;4.27;2.10;;;;;;;7.21;70.11;102710.44;5053922;28;20539;-86
2023/05/18 00:31:22;;;;;;;3.40;1.90;;;;;;;7.14;70.03;102709.38;5074405;28;20040;-86
2023/05/18 00:33:47;;;;;;;3.85;1.98;;;;;;;7.10;70.95;102707.53;5074889;28;20074;-86
2023/05/18 00:36:15;;;;;;;4.07;2.20;;;;;;;7.02;73.66;102711.59;5074290;28;20028;-86
2023/05/18 00:38:41;;;;;;;3.85;2.10;;;;;;;6.95;71.15;102714.00;5062505;28;20036;-86
2023/05/18 00:41:06;;;;;;;4.17;2.00;;;;;;;6.97;70.29;102706.31;5054620;28;20025;-85
2023/05/18 00:43:31;;;;;;;2.90;2.10;;;;;;;6.94;71.14;102714.84;5054165;28;20036;-86
2023/05/18 00:45:57;;;;;;;2.47;1.70;;;;;;;6.94;72.32;102714.84;5054545;28;20457;-86
2023/05/18 00:48:22;;;;;;;2.70;1.90;;;;;;;6.92;72.04;102721.66;5054322;28;20029;-86
2023/05/18 00:50:50;;;;;;;1.73;1.50;;;;;;;6.93;70.25;102722.53;5053409;28;20021;-86
2023/05/18 00:53:15;;;;;;;2.35;1.65;;;;;;;6.90;71.56;102718.16;5054458;28;20051;-86
2023/05/18 00:55:41;;;;;;;2.37;1.60;;;;;;;6.90;69.73;102713.00;5055106;28;20450;-86
2023/05/18 00:58:06;;;;;;;2.80;1.80;;;;;;;6.92;69.66;102721.66;5053511;28;20103;-86
2023/05/18 01:00:32;;;;;;;5.60;2.00;;;;;;;6.88;69.75;102713.78;5056846;28;20025;-86
2023/05/18 01:02:58;;;;;;;1.80;1.60;;;;;;;6.92;70.80;102721.66;5074529;28;20145;-86
2023/05/18 01:05:23;;;;;;;1.80;1.57;;;;;;;6.92;69.26;102719.06;5074571;28;20107;-86
2023/05/18 01:07:49;;;;;;;1.87;1.43;;;;;;;6.93;69.46;102723.41;5075120;28;20071;-86
2023/05/18 01:10:17;;;;;;;2.20;1.85;;;;;;;6.86;71.19;102718.00;5074204;28;20060;-85
2023/05/18 01:13:08;;;;;;;3.63;2.10;;;;;;;6.77;71.85;102723.75;5078050;28;20465;-86
2023/05/18 01:15:38;;;;;;;3.90;2.30;;;;;;;6.69;74.22;102720.06;5074416;28;20035;-86
2023/05/18 01:18:20;;;;;;;4.75;2.13;;;;;;;6.59;73.41;102724.06;5073478;28;20048;-85
2023/05/18 01:20:46;;;;;;;3.28;2.10;;;;;;;6.58;71.20;102723.19;5074396;28;20035;-86
2023/05/18 01:23:56;;;;;;;2.17;1.90;;;;;;;6.59;70.93;102724.94;5073556;28;20029;-86
2023/05/18 01:26:36;;;;;;;2.03;1.70;;;;;;;6.57;71.47;102723.16;5064658;28;20039;-86
2023/05/18 01:29:08;;;;;;;3.20;1.90;;;;;;;6.52;72.87;102723.03;5059596;28;20028;-86
2023/05/18 01:31:34;;;;;;;2.25;1.80;;;;;;;6.50;73.38;102732.41;5072257;28;20030;-87
2023/05/18 01:34:00;;;;;;;3.83;1.83;;;;;;;6.49;71.96;102723.78;5086458;28;20040;-85
2023/05/18 01:36:25;;;;;;;1.92;1.50;;;;;;;6.46;72.57;102730.53;5080043;28;20533;-86
2023/05/18 01:38:52;;;;;;;1.80;1.60;;;;;;;6.45;71.48;102721.06;5060318;28;20021;-86
2023/05/18 01:41:25;;;;;;;1.80;1.60;;;;;;;6.45;72.10;102721.94;5053619;28;20032;-86
2023/05/18 01:44:08;;;;;;;2.15;1.50;;;;;;;6.46;70.83;102718.53;5053862;28;20477;-86
2023/05/18 01:46:40;;;;;;;2.72;1.60;;;;;;;6.49;71.34;102723.78;5053413;28;20140;-86
2023/05/18 01:49:28;;;;;;;1.98;1.80;;;;;;;6.45;71.95;102724.53;5053498;28;20029;-85
2023/05/18 01:51:57;;;;;;;2.83;2.17;;;;;;;6.41;73.04;102724.38;5052796;28;20033;-86
2023/05/18 01:54:23;;;;;;;2.13;1.90;;;;;;;6.33;72.44;102717.25;5052459;28;20432;-86
2023/05/18 01:56:53;;;;;;;2.35;2.00;;;;;;;6.36;71.47;102723.34;5057724;28;20036;-86
2023/05/18 01:59:18;;;;;;;2.70;1.90;;;;;;;6.35;73.47;102719.91;5072957;28;20032;-86
2023/05/18 02:01:44;;;;;;;1.70;1.60;;;;;;;6.36;71.99;102716.47;5072199;28;20158;-86
2023/05/18 02:04:09;;;;;;;3.60;1.90;;;;;;;6.31;72.94;102715.47;5072719;28;20484;-86
2023/05/18 02:06:36;;;;;;;2.22;1.80;;;;;;;6.30;73.42;102721.44;5073304;28;20032;-86
2023/05/18 02:09:04;;;;;;;2.47;1.70;;;;;;;6.27;74.04;102723.91;5072088;28;20037;-85
2023/05/18 02:11:30;;;;;;;2.15;1.63;;;;;;;6.22;72.13;102716.03;5073139;28;20025;-85
2023/05/18 02:13:55;;;;;;;2.17;1.70;;;;;;;6.26;72.05;102719.56;5072716;28;20361;-85
2023/05/18 02:16:21;;;;;;;1.60;1.50;;;;;;;6.26;71.98;102709.25;5073104;28;20507;-85
2023/05/18 02:18:46;;;;;;;2.17;1.70;;;;;;;6.24;73.14;102706.63;5076833;28;20020;-86
2023/05/18 02:21:12;;;;;;;1.90;1.70;;;;;;;6.21;74.14;102716.84;5072394;28;20300;-86
2023/05/18 02:23:38;;;;;;;3.72;1.88;;;;;;;6.12;74.97;102708.81;5073054;28;20031;-86
2023/05/18 02:26:06;;;;;;;1.80;1.70;;;;;;;6.13;74.33;102713.16;5072808;28;20020;-86
2023/05/18 02:28:31;;;;;;;2.70;1.73;;;;;;;6.10;73.56;102713.03;5071818;28;20414;-86
2023/05/18 02:31:07;;;;;;;2.03;1.60;;;;;;;6.10;72.75;102706.19;5073219;28;20072;-86
2023/05/18 02:33:35;;;;;;;2.13;1.90;;;;;;;6.05;76.06;102704.28;5073346;28;20090;-86
2023/05/18 02:36:01;;;;;;;4.10;2.20;;;;;;;5.99;76.28;102699.78;5077078;28;20279;-86
2023/05/18 02:38:27;;;;;;;8.23;2.40;;;;;;;5.94;75.90;102707.34;5083442;28;20020;-86
2023/05/18 02:40:52;;;;;;;3.65;2.10;;;;;;;5.92;77.00;102698.69;5072692;28;20473;-86
2023/05/18 02:43:17;;;;;;;2.40;2.00;;;;;;;5.90;73.84;102696.88;5072018;28;20115;-85
2023/05/18 02:45:42;;;;;;;2.33;1.90;;;;;;;5.91;74.46;102699.50;5072754;28;20415;-86
2023/05/18 02:48:08;;;;;;;2.73;1.70;;;;;;;5.92;74.16;102700.38;5072929;28;20021;-86
2023/05/18 02:50:33;;;;;;;1.60;1.50;;;;;;;5.93;73.24;102691.81;5072405;28;20469;-86
2023/05/18 02:52:58;;;;;;;2.17;1.75;;;;;;;5.95;74.04;102697.91;5069943;28;20477;-85
2023/05/18 02:55:23;;;;;;;2.15;1.60;;;;;;;5.94;73.49;102694.47;5064570;28;20041;-86
2023/05/18 02:57:55;;;;;;;3.17;2.08;;;;;;;5.93;74.32;102702.13;5052935;28;20025;-86
2023/05/18 03:00:22;;;;;;;2.80;1.90;;;;;;;5.91;73.90;102691.78;5052575;28;20385;-86
2023/05/18 03:02:49;;;;;;;4.32;2.15;;;;;;;5.91;74.24;102694.34;5052615;28;20029;-86
2023/05/18 03:05:15;;;;;;;2.75;1.90;;;;;;;5.86;73.86;102694.19;5051777;28;20390;-86
2023/05/18 03:07:44;;;;;;;1.88;1.70;;;;;;;5.90;73.23;102697.75;5052493;28;20025;-86
2023/05/18 03:10:10;;;;;;;1.90;1.67;;;;;;;5.93;73.01;102700.44;5051856;28;20382;-85
2023/05/18 03:12:35;;;;;;;2.00;1.80;;;;;;;5.90;74.99;102705.47;5052505;28;20150;-86
2023/05/18 03:15:00;;;;;;;2.42;1.65;;;;;;;5.91;72.99;102704.66;5055647;28;20053;-86
2023/05/18 03:17:29;;;;;;;1.90;1.80;;;;;;;5.92;73.69;102708.09;5055838;28;20025;-86
2023/05/18 03:19:54;;;;;;;2.00;1.80;;;;;;;5.90;73.99;102705.47;5056324;28;20025;-86
2023/05/18 03:22:20;;;;;;;2.33;1.83;;;;;;;5.87;73.83;102702.78;5056047;28;20380;-86
2023/05/18 03:24:45;;;;;;;1.77;1.67;;;;;;;5.85;75.77;102701.88;5078135;28;20446;-86
2023/05/18 03:27:11;;;;;;;2.97;1.80;;;;;;;5.80;75.09;102706.00;5073892;28;20032;-86
2023/05/18 03:29:37;;;;;;;1.95;1.70;;;;;;;5.78;73.65;102707.63;5075920;28;20040;-86
2023/05/18 03:32:05;;;;;;;1.88;1.40;;;;;;;5.78;73.38;102703.38;5075414;28;20468;-86
2023/05/18 03:34:30;;;;;;;1.98;1.80;;;;;;;5.78;74.62;102705.06;5076216;28;20122;-86
2023/05/18 03:36:56;;;;;;;3.00;1.70;;;;;;;5.75;73.89;102702.38;5076075;28;20395;-86
2023/05/18 03:39:22;;;;;;;2.17;1.77;;;;;;;5.70;76.59;102703.09;5075079;28;20101;-86
2023/05/18 03:41:48;;;;;;;1.67;1.58;;;;;;;5.70;74.55;102697.06;5076162;28;20390;-86
2023/05/18 03:44:13;;;;;;;2.53;1.75;;;;;;;5.70;73.65;102705.69;5075258;28;20459;-87
2023/05/18 03:46:39;;;;;;;1.98;1.77;;;;;;;5.70;73.43;102695.38;5074909;28;20029;-86
2023/05/18 03:49:06;;;;;;;3.72;1.70;;;;;;;5.74;74.09;102704.06;5075506;28;20358;-86
2023/05/18 03:51:31;;;;;;;2.03;1.90;;;;;;;5.72;73.92;102696.31;5067629;28;20029;-86
2023/05/18 03:53:57;;;;;;;1.93;1.77;;;;;;;5.69;75.08;102696.19;5055891;28;20036;-87
2023/05/18 03:56:22;;;;;;;2.90;1.80;;;;;;;5.72;74.30;102701.47;5071633;28;20039;-86
2023/05/18 03:58:47;;;;;;;2.20;1.50;;;;;;;5.72;73.51;102695.41;5075177;28;20082;-86
2023/05/18 04:01:13;;;;;;;2.87;1.63;;;;;;;5.78;74.63;102715.38;5074429;28;20108;-86
2023/05/18 04:03:39;;;;;;;2.17;1.80;;;;;;;5.74;76.24;102703.22;5075038;28;20029;-86
2023/05/18 04:06:05;;;;;;;1.85;1.70;;;;;;;5.71;75.05;102706.53;5074231;28;20430;-86
2023/05/18 04:08:33;;;;;;;2.58;1.73;;;;;;;5.74;74.25;102709.22;5074573;28;20103;-86
2023/05/18 04:10:58;;;;;;;3.42;1.73;;;;;;;5.78;73.99;102712.78;5075135;28;20442;-85
2023/05/18 04:13:24;;;;;;;2.93;1.83;;;;;;;5.80;73.53;102718.88;5074621;28;20165;-85
2023/05/18 04:15:49;;;;;;;2.42;1.70;;;;;;;5.85;73.62;102725.09;5074704;28;20078;-86
2023/05/18 04:18:15;;;;;;;3.17;1.95;;;;;;;5.86;73.65;102717.38;5074983;28;20035;-86
2023/05/18 04:20:44;;;;;;;2.15;1.70;;;;;;;5.87;73.85;102721.72;5056229;28;20036;-86
2023/05/18 04:23:10;;;;;;;3.10;2.05;;;;;;;5.94;73.98;102732.22;5054502;28;20036;-86
2023/05/18 04:25:35;;;;;;;2.20;1.90;;;;;;;5.95;73.85;102728.84;5058549;28;20029;-86
2023/05/18 04:28:01;;;;;;;4.13;1.90;;;;;;;5.95;73.97;102727.16;5074134;28;20024;-86
2023/05/18 04:30:28;;;;;;;1.83;1.67;;;;;;;5.98;73.61;102724.66;5074793;28;20043;-86
2023/05/18 04:32:56;;;;;;;;;;;;;;;6.03;73.66;102736.03;5075136;28;20376;-86
2023/05/18 04:35:24;;;;;;;2.30;1.60;;;;;;;6.05;76.29;102738.66;5073749;28;20336;-86
2023/05/18 04:37:53;;;;;;;3.65;2.10;;;;;;;6.00;74.69;102730.78;5074736;28;20029;-86
2023/05/18 04:40:18;;;;;;;3.38;2.10;;;;;;;6.00;74.30;102733.34;5074515;28;20048;-86
2023/05/18 04:42:46;;;;;;;1.83;1.73;;;;;;;6.07;74.81;102736.16;5073800;28;20510;-86
2023/05/18 04:45:19;;;;;;;2.40;1.90;;;;;;;6.07;74.28;102731.00;5074485;28;20150;-86
2023/05/18 04:47:45;;;;;;;3.60;1.88;;;;;;;6.13;73.93;102732.09;5064393;28;20044;-86
2023/05/18 04:50:15;;;;;;;2.65;2.00;;;;;;;6.18;75.84;102732.25;5053617;28;20029;-86
2023/05/18 04:52:47;;;;;;;2.30;1.80;;;;;;;6.21;73.76;102747.78;5054706;28;20057;-86
2023/05/18 04:55:14;;;;;;;2.13;1.88;;;;;;;6.27;73.84;102744.53;5054104;28;20504;-86
2023/05/18 04:57:41;;;;;;;2.45;1.90;;;;;;;6.32;74.34;102743.00;5053668;28;20028;-86
2023/05/18 05:00:08;;;;;;;2.63;2.03;;;;;;;6.37;73.55;102744.00;5053689;28;20025;-86
2023/05/18 05:02:34;;;;;;;2.05;1.70;;;;;;;6.42;74.00;102739.00;5054567;28;20033;-86
2023/05/18 05:04:59;;;;;;;2.53;1.70;;;;;;;6.44;74.16;102743.41;5061456;28;20013;-86
2023/05/18 05:07:24;;;;;;;2.70;2.00;;;;;;;6.41;75.41;102740.72;5060274;28;20465;-86
2023/05/18 05:09:50;;;;;;;1.73;1.63;;;;;;;6.47;75.02;102745.19;5053757;28;20112;-87
2023/05/18 05:12:15;;;;;;;2.13;1.80;;;;;;;6.51;75.90;102748.75;5053845;28;20032;-86
2023/05/18 05:14:40;;;;;;;1.80;1.70;;;;;;;6.51;74.68;102747.06;5072824;28;20020;-86
2023/05/18 05:17:06;;;;;;;2.93;2.07;;;;;;;6.58;74.89;102746.41;5072509;28;20385;-86
2023/05/18 05:19:31;;;;;;;8.43;3.93;;;;;;;6.47;76.50;102755.50;5074436;28;20013;-87
2023/05/18 05:21:56;;;;;;;7.17;3.43;;;;;;;6.47;77.02;102742.63;5073702;28;20051;-87
2023/05/18 05:24:21;;;;;;;12.90;4.30;;;;;;;6.37;77.12;102750.88;5072800;28;20047;-86
2023/05/18 05:26:47;;;;;;;10.77;4.80;;;;;;;6.24;77.51;102739.31;5073476;28;20025;-86
2023/05/18 05:29:12;;;;;;;12.37;4.10;;;;;;;6.28;77.13;102746.28;5073511;28;20089;-85
2023/05/18 05:31:37;;;;;;;13.67;4.63;;;;;;;6.20;77.58;102747.75;5072968;28;20043;-83
2023/05/18 05:34:05;;;;;;;11.77;4.10;;;;;;;6.26;77.23;102750.50;5073659;28;20028;-85
2023/05/18 05:36:30;;;;;;;12.15;4.30;;;;;;;6.24;77.91;102747.03;5073140;28;20484;-85
2023/05/18 05:38:56;;;;;;;12.07;5.00;;;;;;;6.23;76.94;102756.47;5072980;28;20073;-85
2023/05/18 05:41:22;;;;;;;12.07;4.37;;;;;;;6.27;77.71;102750.59;5065325;28;20107;-82
2023/05/18 05:43:47;;;;;;;16.67;5.05;;;;;;;6.27;77.29;102754.84;5054242;28;20060;-92
2023/05/18 05:46:12;;;;;;;13.57;4.80;;;;;;;6.25;77.08;102746.22;5054444;28;20029;-86
2023/05/18 05:48:37;;;;;;;12.97;4.93;;;;;;;6.27;77.02;102754.84;5054248;28;20029;-87
2023/05/18 05:51:03;;;;;;;15.73;5.43;;;;;;;6.17;77.21;102754.53;5053375;28;20147;-87
2023/05/18 05:53:28;;;;;;;13.87;5.20;;;;;;;6.18;77.33;102747.72;5053055;28;20032;-87
2023/05/18 05:55:54;;;;;;;13.73;4.93;;;;;;;6.19;76.96;102736.56;5053780;28;20175;-81
2023/05/18 05:58:19;;;;;;;15.60;5.03;;;;;;;6.31;77.11;102755.00;5053102;28;20013;-85
2023/05/18 06:00:45;;;;;;;14.03;4.83;;;;;;;6.31;76.97;102755.00;5052721;28;20025;-87
2023/05/18 06:03:10;;;;;;;13.00;4.67;;;;;;;6.37;76.86;102751.75;5052821;28;20025;-86
2023/05/18 06:05:36;;;;;;;14.40;4.93;;;;;;;6.41;76.55;102750.16;5053161;28;20032;-84
2023/05/18 06:08:01;;;;;;;14.43;5.07;;;;;;;6.42;76.82;102744.16;5052037;28;20025;-83
2023/05/18 06:10:26;;;;;;;9.48;4.13;;;;;;;6.55;76.64;102748.03;5068993;28;20021;-87
2023/05/18 06:12:54;;;;;;;7.23;3.83;;;;;;;6.71;76.66;102754.56;5073404;28;20035;-87
2023/05/18 06:15:20;;;;;;;9.85;4.35;;;;;;;6.86;75.53;102751.56;5072134;28;20464;-84
2023/05/18 06:17:45;;;;;;;13.00;5.10;;;;;;;6.96;74.55;102745.84;5073125;28;20025;-84
2023/05/18 06:20:12;;;;;;;13.90;5.13;;;;;;;6.99;74.69;102752.81;5071720;28;20082;-82
2023/05/18 06:22:37;;;;;;;11.80;4.55;;;;;;;7.13;74.36;102754.09;5072798;28;20439;-86
2023/05/18 06:25:03;;;;;;;13.77;4.97;;;;;;;7.38;73.67;102749.66;5072575;28;20021;-87
2023/05/18 06:27:28;;;;;;;11.50;4.90;;;;;;;7.52;72.69;102737.13;5072328;28;20048;-86
2023/05/18 06:29:53;;;;;;;14.40;5.20;;;;;;;7.96;71.09;102754.69;5076116;28;20102;-88
2023/05/18 06:32:19;;;;;;;12.73;4.70;;;;;;;8.14;71.38;102752.56;5062397;28;20115;-86
2023/05/18 06:34:49;;;;;;;14.85;5.20;;;;;;;9.12;66.79;102762.66;5060555;28;20021;-86
2023/05/18 06:37:14;;;;;;;13.77;4.78;;;;;;;9.90;65.48;102752.09;5060187;28;20430;-86
2023/05/18 06:39:40;;;;;;;13.20;4.63;;;;;;;10.32;66.19;102755.38;5071806;28;20048;-86
2023/05/18 06:42:05;;;;;;;15.20;5.23;;;;;;;10.93;60.21;102752.03;5071733;28;20078;-86
2023/05/18 06:44:32;;;;;;;13.70;4.60;;;;;;;10.94;58.77;102767.63;5072919;28;20028;-86
2023/05/18 06:46:57;;;;;;;11.20;4.72;;;;;;;10.84;59.40;102768.34;5072152;28;20146;-86
2023/05/18 06:49:22;;;;;;;12.23;4.50;;;;;;;10.72;60.83;102762.97;5076120;28;20066;-85
2023/05/18 06:51:48;;;;;;;11.87;4.50;;;;;;;10.91;60.64;102764.09;5079129;28;20481;-87
2023/05/18 06:54:13;;;;;;;16.17;5.13;;;;;;;10.81;59.44;102768.28;5077673;28;20025;-83
2023/05/18 06:56:38;;;;;;;15.57;5.17;;;;;;;10.30;59.93;102770.94;5078204;28;20048;-85
2023/05/18 06:59:04;;;;;;;13.47;4.87;;;;;;;10.17;60.08;102775.06;5078834;28;20029;-85
2023/05/18 07:01:29;;;;;;;16.03;4.90;;;;;;;10.13;61.02;102773.25;5079232;28;20404;-87
2023/05/18 07:03:54;;;;;;;10.67;4.47;;;;;;;9.96;61.34;102766.91;5065678;28;20033;-86
2023/05/18 07:06:22;;;;;;;14.00;5.20;;;;;;;9.45;62.40;102777.16;5059122;28;20033;-88
2023/05/18 07:08:48;;;;;;;11.43;4.60;;;;;;;9.47;64.24;102777.16;5059836;28;20031;-88
2023/05/18 07:11:13;;;;;;;13.93;5.00;;;;;;;9.37;63.86;102777.00;5058243;28;20029;-88
2023/05/18 07:13:38;;;;;;;16.77;5.10;;;;;;;9.16;63.80;102789.50;5059098;28;20033;-90
2023/05/18 07:16:04;;;;;;;13.37;5.10;;;;;;;9.14;64.04;102788.56;5059160;28;20376;-87
2023/05/18 07:18:29;;;;;;;16.23;5.30;;;;;;;8.97;64.84;102778.72;5058846;28;20036;-86
2023/05/18 07:20:55;;;;;;;11.23;4.30;;;;;;;9.06;65.36;102780.66;5058669;28;20041;-87
2023/05/18 07:23:21;;;;;;;12.70;4.60;;;;;;;9.23;65.37;102788.81;5057915;28;20565;-87
2023/05/18 07:25:46;;;;;;;10.82;4.78;;;;;;;9.39;65.08;102790.00;5059260;28;20028;-87
2023/05/18 07:28:11;;;;;;;14.97;5.53;;;;;;;9.21;64.06;102793.06;5058994;28;20123;-89
2023/05/18 07:30:37;;;;;;;15.90;5.00;;;;;;;9.30;65.05;102793.25;5059787;28;20445;-86
2023/05/18 07:33:03;;;;;;;15.63;5.70;;;;;;;9.35;64.95;102795.94;5078754;28;20086;-88
2023/05/18 07:35:28;;;;;;;12.10;4.97;;;;;;;9.35;65.65;102796.81;5063548;28;20021;-87
2023/05/18 07:37:53;;;;;;;10.97;4.30;;;;;;;9.46;65.15;102785.81;5058393;28;20029;-88
2023/05/18 07:40:19;;;;;;;14.80;5.07;;;;;;;9.71;64.03;102800.16;5059028;28;20029;-89
2023/05/18 07:42:45;;;;;;;13.33;4.70;;;;;;;9.79;64.37;102792.53;5059196;28;20457;-88
2023/05/18 07:45:10;;;;;;;13.00;5.30;;;;;;;9.81;64.71;102785.63;5058637;28;20029;-88
2023/05/18 07:47:35;;;;;;;16.80;5.70;;;;;;;9.88;62.44;102800.47;5059475;28;20028;-90
2023/05/18 07:50:01;;;;;;;13.00;5.00;;;;;;;9.91;62.91;102797.91;5058849;28;20055;-87
2023/05/18 07:52:27;;;;;;;11.73;4.43;;;;;;;9.99;62.76;102796.34;5059094;28;20021;-87
2023/05/18 07:54:55;;;;;;;13.77;5.07;;;;;;;10.10;62.00;102799.13;5059071;28;20457;-87
2023/05/18 07:57:20;;;;;;;12.98;4.85;;;;;;;10.23;62.00;102801.94;5058448;28;20290;-88
2023/05/18 07:59:46;;;;;;;11.87;4.37;;;;;;;10.38;63.48;102793.59;5067241;28;20028;-89
2023/05/18 08:02:11;;;;;;;8.80;3.90;;;;;;;10.65;62.46;102808.72;5075766;28;20024;-88
2023/05/18 08:04:36;;;;;;;13.00;4.70;;;;;;;10.71;59.85;102808.84;5076079;28;20080;-88
2023/05/18 08:07:02;;;;;;;12.20;4.80;;;;;;;10.82;59.35;102803.81;5074744;28;20025;-89
2023/05/18 08:09:27;;;;;;;13.30;4.70;;;;;;;10.93;60.49;102804.84;5075530;28;20071;-89
2023/05/18 08:11:52;;;;;;;15.00;4.90;;;;;;;10.88;58.60;102810.81;5075750;28;20431;-89
2023/05/18 08:14:18;;;;;;;10.10;3.80;;;;;;;11.07;61.22;102804.16;5074915;28;20397;-88
2023/05/18 08:16:43;;;;;;;9.17;4.30;;;;;;;11.23;59.77;102794.84;5058089;28;20104;-88
2023/05/18 08:19:09;;;;;;;10.00;3.77;;;;;;;11.47;57.53;102804.72;5055524;28;20033;-88
2023/05/18 08:21:34;;;;;;;12.80;4.60;;;;;;;11.44;56.59;102804.66;5054445;28;20025;-87
2023/05/18 08:24:01;;;;;;;10.27;4.43;;;;;;;11.58;55.84;102813.53;5055118;28;20044;-88
2023/05/18 08:26:27;;;;;;;12.32;4.35;;;;;;;11.51;56.58;102801.28;5055775;28;20052;-89
2023/05/18 08:28:53;;;;;;;9.80;3.80;;;;;;;11.70;56.43;102798.91;5054749;28;20075;-87
2023/05/18 08:31:18;;;;;;;11.50;4.03;;;;;;;11.80;54.78;102798.16;5055568;28;20033;-88
2023/05/18 08:33:44;;;;;;;12.20;3.60;;;;;;;11.86;55.03;102795.63;5054405;28;20048;-87
2023/05/18 08:36:09;;;;;;;13.13;4.40;;;;;;;11.63;54.52;102791.88;5054762;28;20024;-87
2023/05/18 08:38:35;;;;;;;12.07;4.10;;;;;;;11.59;57.06;102783.19;5055277;28;20025;-88
2023/05/18 08:41:25;;;;;;;13.67;4.20;;;;;;;11.82;55.04;102788.63;5054468;28;20279;-89
2023/05/18 08:44:05;;;;;;;14.43;4.15;;;;;;;11.79;53.49;102787.72;5054710;28;20036;-88
2023/05/18 08:46:38;;;;;;;11.68;3.95;;;;;;;11.79;53.58;102786.00;5056336;28;20472;-85
2023/05/18 08:49:04;;;;;;;10.80;4.00;;;;;;;11.57;53.51;102780.56;5068967;28;20036;-87
2023/05/18 08:51:34;;;;;;;12.55;4.53;;;;;;;11.43;53.56;102782.13;5074507;28;20021;-86
2023/05/18 08:54:01;;;;;;;9.43;3.35;;;;;;;11.75;56.65;102773.81;5073962;28;20465;-86
2023/05/18 08:56:30;;;;;;;13.93;4.30;;;;;;;11.96;53.78;102765.38;5074141;28;20027;-88
2023/05/18 08:58:55;;;;;;;11.90;3.45;;;;;;;12.22;51.93;102771.69;5075217;28;20024;-88
2023/05/18 09:01:26;;;;;;;15.83;4.17;;;;;;;12.47;50.83;102773.66;5074062;28;20107;-87
2023/05/18 09:03:52;;;;;;;10.43;3.95;;;;;;;12.10;50.86;102777.69;5073648;28;20020;-88
2023/05/18 09:06:19;;;;;;;14.75;4.25;;;;;;;12.34;51.90;102774.41;5074445;28;20311;-87
2023/05/18 09:08:45;;;;;;;11.25;4.05;;;;;;;12.64;52.45;102771.16;5069276;28;20037;-88
2023/05/18 09:11:12;;;;;;;12.07;3.60;;;;;;;12.95;52.37;102767.84;5068761;28;20025;-89
2023/05/18 09:13:37;;;;;;;;;;;;;;;13.28;53.28;102772.38;5074223;28;20029;-87
2023/05/18 09:16:03;;;;;;;11.47;3.47;;;;;;;13.37;49.80;102768.06;5073072;28;19958;-87
2023/05/18 09:18:28;;;;;;;12.80;3.90;;;;;;;13.40;50.38;102768.97;5074255;28;20029;-87
2023/05/18 09:20:53;;;;;;;7.50;3.43;;;;;;;13.53;49.45;102763.81;5074182;28;20020;-88
2023/05/18 09:23:19;;;;;;;9.43;3.40;;;;;;;13.36;48.93;102763.72;5073954;28;20029;-90
2023/05/18 09:25:48;;;;;;;10.77;3.70;;;;;;;13.30;49.44;102761.94;5074214;28;20044;-88
2023/05/18 09:28:25;;;;;;;15.10;3.90;;;;;;;12.80;48.81;102772.13;5073975;28;20031;-87
2023/05/18 09:30:52;;;;;;;11.25;3.90;;;;;;;12.58;50.05;102772.84;5073513;28;20519;-88
2023/05/18 09:33:20;;;;;;;8.20;3.58;;;;;;;12.48;49.12;102775.41;5073735;28;20035;-87
2023/05/18 09:35:46;;;;;;;10.25;3.90;;;;;;;12.56;48.82;102767.63;5073997;28;20385;-87
2023/05/18 09:38:16;;;;;;;12.50;3.83;;;;;;;12.25;49.17;102763.91;5073297;28;20033;-90
2023/05/18 09:40:45;;;;;;;10.90;4.22;;;;;;;11.86;50.15;102759.19;5074025;28;20111;-87
2023/05/18 09:43:10;;;;;;;13.38;4.38;;;;;;;11.90;50.38;102758.38;5073388;28;20125;-88
2023/05/18 09:45:41;;;;;;;12.73;4.10;;;;;;;11.80;51.20;102753.94;5073573;28;20178;-88
2023/05/18 09:48:06;;;;;;;13.05;4.22;;;;;;;11.80;51.89;102756.53;5073754;28;20469;-90
2023/05/18 09:50:32;;;;;;;14.50;4.17;;;;;;;12.13;50.33;102751.66;5073755;28;20040;-87
2023/05/18 09:52:59;;;;;;;10.80;4.27;;;;;;;12.56;49.84;102766.75;5073073;28;20025;-88
2023/05/18 09:55:24;;;;;;;9.90;3.10;;;;;;;12.94;51.45;102753.13;5073348;28;20040;-88
2023/05/18 09:57:50;;;;;;;10.07;3.90;;;;;;;13.27;48.34;102756.75;5073848;28;20096;-89
2023/05/18 10:00:18;;;;;;;10.47;3.53;;;;;;;13.40;49.43;102758.53;5073094;28;20029;-87
2023/05/18 10:02:48;;;;;;;7.38;3.30;;;;;;;13.47;47.18;102748.16;5078446;28;20025;-89
2023/05/18 10:05:26;;;;;;;7.63;2.88;;;;;;;13.48;49.21;102742.91;5073679;28;20099;-87
2023/05/18 10:07:52;;;;;;;6.15;2.65;;;;;;;13.75;48.96;102742.13;5074203;28;20030;-88
2023/05/18 10:10:19;;;;;;;10.55;3.80;;;;;;;13.66;47.68;102743.84;5074191;28;20464;-87
2023/05/18 10:12:45;;;;;;;9.77;3.55;;;;;;;13.61;47.51;102740.34;5073272;28;20030;-88
2023/05/18 10:15:15;;;;;;;10.23;3.47;;;;;;;13.62;47.87;102739.50;5073660;28;20107;-87
2023/05/18 10:17:43;;;;;;;6.82;3.42;;;;;;;13.55;47.49;102744.69;5073882;28;20055;-88
2023/05/18 10:20:09;;;;;;;10.00;3.50;;;;;;;13.65;47.05;102742.97;5073244;28;20099;-86
2023/05/18 10:22:35;;;;;;;9.40;3.50;;;;;;;13.43;48.59;102747.28;5073406;28;20051;-85
2023/05/18 10:25:04;;;;;;;7.65;3.50;;;;;;;13.57;48.54;102735.13;5073006;28;20229;-89
2023/05/18 10:27:33;;;;;;;13.50;4.30;;;;;;;13.30;47.29;102741.09;5073377;28;20043;-87
2023/05/18 10:30:02;;;;;;;9.68;3.42;;;;;;;13.35;48.34;102731.56;5073218;28;20056;-87
2023/05/18 10:32:30;;;;;;;6.55;3.05;;;;;;;13.58;48.95;102725.56;5071254;28;20028;-88
2023/05/18 10:34:58;;;;;;;10.50;3.90;;;;;;;13.60;46.61;102739.50;5052814;28;20496;-88
2023/05/18 10:37:29;;;;;;;11.55;4.40;;;;;;;12.99;46.63;102748.78;5053978;28;20048;-88
2023/05/18 10:39:55;;;;;;;10.02;3.50;;;;;;;13.28;47.42;102737.63;5053459;28;20060;-87
2023/05/18 10:42:21;;;;;;;9.93;3.53;;;;;;;13.49;48.41;102726.41;5052121;28;20036;-87
2023/05/18 10:44:47;;;;;;;8.07;3.17;;;;;;;13.73;46.33;102724.72;5057891;28;20029;-88
2023/05/18 10:47:14;;;;;;;8.57;3.37;;;;;;;13.93;46.77;102731.69;5055965;28;20031;-86
2023/05/18 10:49:41;;;;;;;6.90;3.25;;;;;;;14.11;48.77;102718.69;5068533;28;20070;-87
2023/05/18 10:52:08;;;;;;;11.25;4.10;;;;;;;13.75;45.17;102731.69;5072791;28;20070;-88
2023/05/18 10:54:35;;;;;;;11.65;3.83;;;;;;;13.60;46.83;102729.06;5072796;28;20369;-88
2023/05/18 10:57:01;;;;;;;11.55;4.57;;;;;;;13.39;46.70;102722.94;5073378;28;20028;-88
2023/05/18 10:59:27;;;;;;;6.80;3.25;;;;;;;13.78;47.83;102715.19;5073283;28;20017;-89
2023/05/18 11:01:53;;;;;;;8.70;3.50;;;;;;;14.31;45.43;102709.94;5070704;28;20086;-87
2023/05/18 11:04:25;;;;;;;11.95;4.70;;;;;;;14.47;45.64;102702.97;5072978;28;20059;-87
2023/05/18 11:06:58;;;;;;;14.57;5.07;;;;;;;14.29;45.68;102712.56;5072996;28;20082;-89
2023/05/18 11:09:27;;;;;;;10.95;4.32;;;;;;;14.58;46.32;102711.66;5076003;28;20020;-87
2023/05/18 11:11:56;;;;;;;10.38;5.00;;;;;;;14.25;44.78;102709.94;5072863;28;20031;-88
2023/05/18 11:14:31;;;;;;;12.32;4.35;;;;;;;14.47;44.53;102705.56;5071601;28;20020;-88
2023/05/18 11:17:22;;;;;;;13.63;4.97;;;;;;;14.11;44.50;102707.34;5052990;28;20373;-89
2023/05/18 11:20:06;;;;;;;10.43;4.20;;;;;;;14.07;47.28;102709.09;5053676;28;20431;-87
2023/05/18 11:22:56;;;;;;;10.18;3.88;;;;;;;14.39;45.96;102699.50;5052485;28;20032;-88
2023/05/18 11:25:35;;;;;;;12.60;4.40;;;;;;;14.53;44.81;102700.31;5052811;28;20485;-89
2023/05/18 11:28:04;;;;;;;7.47;3.90;;;;;;;14.79;46.08;102696.81;5052090;28;20033;-88